Weather at Debert Airport

Public forecast

Using degrees Celsius for public forecast. Weather courtesy of forecast.io.

Closest aviation weather report (METAR) to Debert Airport

Closest report is Halifax / Stanfield International Airport, 32.4 nm (59.9 km) S.

2024/06/18 17:00 (retrieved 1 hour ago)

CYHZ 181700Z 23010KT 15SM FEW038 FEW250 22/15 A3024 RMK SC2CI1 CI TR SLP243 DENSITY ALT 1100FT

Closest aviation forecast (TAF) to Debert Airport

Closest forecast is Halifax / Stanfield International Airport, 32.4 nm (59.9 km) S.

2024/06/18 18:42 (retrieved 0 seconds ago)

TAF CYHZ 181740Z 1818/1918 21012KT P6SM SCT040 FM182300 18008KT P6SM FEW008 FM190500 18006KT 6SM BR SCT002 PROB30 1905/1911 1/2SM FG BKN002 FM191100 21008KT P6SM FEW003 RMK NXT FCST BY 182100Z